sensor_id;sensor_type;location;lat;lon;timestamp;temperature;humidity
57636;DHT22;43465;50.728;4.160;2022-12-24T00:01:08;11.90;99.90
57636;DHT22;43465;50.728;4.160;2022-12-24T00:03:35;11.90;99.90
57636;DHT22;43465;50.728;4.160;2022-12-24T00:06:12;11.90;99.90
57636;DHT22;43465;50.728;4.160;2022-12-24T00:08:40;12.00;99.90
57636;DHT22;43465;50.728;4.160;2022-12-24T00:11:06;11.90;99.90
57636;DHT22;43465;50.728;4.160;2022-12-24T00:13:32;11.90;99.90
57636;DHT22;43465;50.728;4.160;2022-12-24T00:15:58;11.90;99.90
57636;DHT22;43465;50.728;4.160;2022-12-24T00:18:23;11.80;99.90
57636;DHT22;43465;50.728;4.160;2022-12-24T00:20:49;11.80;99.90
57636;DHT22;43465;50.728;4.160;2022-12-24T00:23:16;11.80;99.90
57636;DHT22;43465;50.728;4.160;2022-12-24T00:25:42;11.70;99.90
57636;DHT22;43465;50.728;4.160;2022-12-24T00:28:08;11.70;99.90
57636;DHT22;43465;50.728;4.160;2022-12-24T00:30:34;11.70;99.90
57636;DHT22;43465;50.728;4.160;2022-12-24T00:32:59;11.70;99.90
57636;DHT22;43465;50.728;4.160;2022-12-24T00:35:25;11.70;99.90
57636;DHT22;43465;50.728;4.160;2022-12-24T00:37:51;11.70;99.90
57636;DHT22;43465;50.728;4.160;2022-12-24T00:40:17;11.60;99.90
57636;DHT22;43465;50.728;4.160;2022-12-24T00:42:43;11.60;99.90
57636;DHT22;43465;50.728;4.160;2022-12-24T00:45:10;11.60;99.90
57636;DHT22;43465;50.728;4.160;2022-12-24T00:47:35;11.60;99.90
57636;DHT22;43465;50.728;4.160;2022-12-24T00:50:01;11.60;99.90
57636;DHT22;43465;50.728;4.160;2022-12-24T00:52:27;11.60;99.90
57636;DHT22;43465;50.728;4.160;2022-12-24T00:54:53;11.60;99.90
57636;DHT22;43465;50.728;4.160;2022-12-24T00:57:18;11.60;99.90
57636;DHT22;43465;50.728;4.160;2022-12-24T00:59:44;11.60;99.90
57636;DHT22;43465;50.728;4.160;2022-12-24T01:02:10;11.60;99.90
57636;DHT22;43465;50.728;4.160;2022-12-24T01:04:35;11.60;99.90
57636;DHT22;43465;50.728;4.160;2022-12-24T01:07:19;11.70;99.90
57636;DHT22;43465;50.728;4.160;2022-12-24T01:09:45;11.70;99.90
57636;DHT22;43465;50.728;4.160;2022-12-24T01:12:11;11.70;99.90
57636;DHT22;43465;50.728;4.160;2022-12-24T01:14:37;11.70;99.90
57636;DHT22;43465;50.728;4.160;2022-12-24T01:17:03;11.60;99.90
57636;DHT22;43465;50.728;4.160;2022-12-24T01:19:29;11.70;99.90
57636;DHT22;43465;50.728;4.160;2022-12-24T01:21:54;11.60;99.90
57636;DHT22;43465;50.728;4.160;2022-12-24T01:24:20;11.60;99.90
57636;DHT22;43465;50.728;4.160;2022-12-24T01:26:46;11.60;99.90
57636;DHT22;43465;50.728;4.160;2022-12-24T01:29:11;11.60;99.90
57636;DHT22;43465;50.728;4.160;2022-12-24T01:31:37;11.70;99.90
57636;DHT22;43465;50.728;4.160;2022-12-24T01:34:03;11.70;99.90
57636;DHT22;43465;50.728;4.160;2022-12-24T01:36:28;11.70;99.90
57636;DHT22;43465;50.728;4.160;2022-12-24T01:38:54;11.60;99.90
57636;DHT22;43465;50.728;4.160;2022-12-24T01:41:21;11.60;99.90
57636;DHT22;43465;50.728;4.160;2022-12-24T01:44:31;11.70;99.90
57636;DHT22;43465;50.728;4.160;2022-12-24T01:47:13;11.70;99.90
57636;DHT22;43465;50.728;4.160;2022-12-24T01:49:44;11.70;99.90
57636;DHT22;43465;50.728;4.160;2022-12-24T01:52:16;11.70;99.90
57636;DHT22;43465;50.728;4.160;2022-12-24T01:54:52;11.70;99.90
57636;DHT22;43465;50.728;4.160;2022-12-24T01:57:29;11.70;99.90
57636;DHT22;43465;50.728;4.160;2022-12-24T01:59:59;11.70;99.90
57636;DHT22;43465;50.728;4.160;2022-12-24T02:02:26;11.80;99.90
57636;DHT22;43465;50.728;4.160;2022-12-24T02:05:09;11.70;99.90
57636;DHT22;43465;50.728;4.160;2022-12-24T02:07:37;11.70;99.90
57636;DHT22;43465;50.728;4.160;2022-12-24T02:10:04;11.70;99.90
57636;DHT22;43465;50.728;4.160;2022-12-24T02:12:33;11.70;99.90
57636;DHT22;43465;50.728;4.160;2022-12-24T02:15:00;11.70;99.90
57636;DHT22;43465;50.728;4.160;2022-12-24T02:17:35;11.60;99.90
57636;DHT22;43465;50.728;4.160;2022-12-24T02:20:17;11.60;99.90
57636;DHT22;43465;50.728;4.160;2022-12-24T02:28:36;11.50;99.90
57636;DHT22;43465;50.728;4.160;2022-12-24T02:31:23;11.50;99.90
57636;DHT22;43465;50.728;4.160;2022-12-24T02:33:58;11.50;99.90
57636;DHT22;43465;50.728;4.160;2022-12-24T02:36:36;11.40;99.90
57636;DHT22;43465;50.728;4.160;2022-12-24T02:39:07;11.50;99.90
57636;DHT22;43465;50.728;4.160;2022-12-24T02:41:38;11.50;99.90
57636;DHT22;43465;50.728;4.160;2022-12-24T02:44:26;11.50;99.90
57636;DHT22;43465;50.728;4.160;2022-12-24T02:46:52;11.50;99.90
57636;DHT22;43465;50.728;4.160;2022-12-24T02:49:19;11.50;99.90
57636;DHT22;43465;50.728;4.160;2022-12-24T02:51:45;11.50;99.90
57636;DHT22;43465;50.728;4.160;2022-12-24T02:54:11;11.50;99.90
57636;DHT22;43465;50.728;4.160;2022-12-24T02:59:41;11.50;99.90
57636;DHT22;43465;50.728;4.160;2022-12-24T03:02:33;11.50;99.90
57636;DHT22;43465;50.728;4.160;2022-12-24T03:05:24;11.50;99.90
57636;DHT22;43465;50.728;4.160;2022-12-24T03:10:59;11.50;99.90
57636;DHT22;43465;50.728;4.160;2022-12-24T03:13:27;11.60;99.90
57636;DHT22;43465;50.728;4.160;2022-12-24T03:15:54;11.60;99.90
57636;DHT22;43465;50.728;4.160;2022-12-24T03:18:25;11.60;99.90
57636;DHT22;43465;50.728;4.160;2022-12-24T03:21:01;11.60;99.90
57636;DHT22;43465;50.728;4.160;2022-12-24T03:23:30;11.60;99.90
57636;DHT22;43465;50.728;4.160;2022-12-24T03:25:56;11.60;99.90
57636;DHT22;43465;50.728;4.160;2022-12-24T03:28:26;11.60;99.90
57636;DHT22;43465;50.728;4.160;2022-12-24T03:30:52;11.70;99.90
57636;DHT22;43465;50.728;4.160;2022-12-24T03:33:18;11.60;99.90
57636;DHT22;43465;50.728;4.160;2022-12-24T03:35:45;11.70;99.90
57636;DHT22;43465;50.728;4.160;2022-12-24T03:38:10;11.70;99.90
57636;DHT22;43465;50.728;4.160;2022-12-24T03:40:36;11.70;99.90
57636;DHT22;43465;50.728;4.160;2022-12-24T03:43:02;11.70;99.90
57636;DHT22;43465;50.728;4.160;2022-12-24T03:45:27;11.70;99.90
57636;DHT22;43465;50.728;4.160;2022-12-24T03:47:53;11.80;99.90
57636;DHT22;43465;50.728;4.160;2022-12-24T03:50:18;11.80;99.90
57636;DHT22;43465;50.728;4.160;2022-12-24T03:52:44;11.70;99.90
57636;DHT22;43465;50.728;4.160;2022-12-24T03:55:10;11.70;99.90
57636;DHT22;43465;50.728;4.160;2022-12-24T03:57:35;11.70;99.90
57636;DHT22;43465;50.728;4.160;2022-12-24T04:00:03;11.70;99.90
57636;DHT22;43465;50.728;4.160;2022-12-24T04:02:29;11.70;99.90
57636;DHT22;43465;50.728;4.160;2022-12-24T04:04:54;11.60;99.90
57636;DHT22;43465;50.728;4.160;2022-12-24T04:07:20;11.70;99.90
57636;DHT22;43465;50.728;4.160;2022-12-24T04:09:46;11.70;99.90
57636;DHT22;43465;50.728;4.160;2022-12-24T04:12:11;11.60;99.90
57636;DHT22;43465;50.728;4.160;2022-12-24T04:14:37;11.60;99.90
57636;DHT22;43465;50.728;4.160;2022-12-24T04:17:02;11.70;99.90
57636;DHT22;43465;50.728;4.160;2022-12-24T04:19:28;11.70;99.90
57636;DHT22;43465;50.728;4.160;2022-12-24T04:21:54;11.70;99.90
57636;DHT22;43465;50.728;4.160;2022-12-24T04:24:19;11.60;99.90
57636;DHT22;43465;50.728;4.160;2022-12-24T04:26:45;11.70;99.90
57636;DHT22;43465;50.728;4.160;2022-12-24T04:29:10;11.60;99.90
57636;DHT22;43465;50.728;4.160;2022-12-24T04:31:37;11.70;99.90
57636;DHT22;43465;50.728;4.160;2022-12-24T04:34:03;11.70;99.90
57636;DHT22;43465;50.728;4.160;2022-12-24T04:36:29;11.60;99.90
57636;DHT22;43465;50.728;4.160;2022-12-24T04:38:54;11.60;99.90
57636;DHT22;43465;50.728;4.160;2022-12-24T04:41:21;11.60;99.90
57636;DHT22;43465;50.728;4.160;2022-12-24T04:43:48;11.60;99.90
57636;DHT22;43465;50.728;4.160;2022-12-24T04:46:16;11.50;99.90
57636;DHT22;43465;50.728;4.160;2022-12-24T04:48:49;11.50;99.90
57636;DHT22;43465;50.728;4.160;2022-12-24T04:51:16;11.50;99.90
57636;DHT22;43465;50.728;4.160;2022-12-24T04:53:42;11.50;99.90
57636;DHT22;43465;50.728;4.160;2022-12-24T04:56:11;11.50;99.90
57636;DHT22;43465;50.728;4.160;2022-12-24T04:58:38;11.50;99.90
57636;DHT22;43465;50.728;4.160;2022-12-24T05:01:11;11.50;99.90
57636;DHT22;43465;50.728;4.160;2022-12-24T05:03:38;11.40;99.90
57636;DHT22;43465;50.728;4.160;2022-12-24T05:06:05;11.40;99.90
57636;DHT22;43465;50.728;4.160;2022-12-24T05:08:31;11.30;99.90
57636;DHT22;43465;50.728;4.160;2022-12-24T05:10:59;11.40;99.90
57636;DHT22;43465;50.728;4.160;2022-12-24T05:13:26;11.40;99.90
57636;DHT22;43465;50.728;4.160;2022-12-24T05:15:52;11.40;99.90
57636;DHT22;43465;50.728;4.160;2022-12-24T05:18:18;11.40;99.90
57636;DHT22;43465;50.728;4.160;2022-12-24T05:20:45;11.40;99.90
57636;DHT22;43465;50.728;4.160;2022-12-24T05:23:22;11.40;99.90
57636;DHT22;43465;50.728;4.160;2022-12-24T05:29:03;11.40;99.90
57636;DHT22;43465;50.728;4.160;2022-12-24T05:31:31;11.40;99.90
57636;DHT22;43465;50.728;4.160;2022-12-24T05:33:58;11.40;99.90
57636;DHT22;43465;50.728;4.160;2022-12-24T05:36:24;11.50;99.90
57636;DHT22;43465;50.728;4.160;2022-12-24T05:38:50;11.50;99.90
57636;DHT22;43465;50.728;4.160;2022-12-24T05:41:16;11.50;99.90
57636;DHT22;43465;50.728;4.160;2022-12-24T05:43:41;11.50;99.90
57636;DHT22;43465;50.728;4.160;2022-12-24T05:46:14;11.50;99.90
57636;DHT22;43465;50.728;4.160;2022-12-24T05:48:40;11.50;99.90
57636;DHT22;43465;50.728;4.160;2022-12-24T05:51:07;11.50;99.90
57636;DHT22;43465;50.728;4.160;2022-12-24T05:53:34;11.50;99.90
57636;DHT22;43465;50.728;4.160;2022-12-24T05:56:09;11.50;99.90
57636;DHT22;43465;50.728;4.160;2022-12-24T05:58:35;11.40;99.90
57636;DHT22;43465;50.728;4.160;2022-12-24T06:01:02;11.40;99.90
57636;DHT22;43465;50.728;4.160;2022-12-24T06:03:29;11.30;99.90
57636;DHT22;43465;50.728;4.160;2022-12-24T06:08:28;11.40;99.90
57636;DHT22;43465;50.728;4.160;2022-12-24T06:10:58;11.40;99.90
57636;DHT22;43465;50.728;4.160;2022-12-24T06:13:24;11.40;99.90
57636;DHT22;43465;50.728;4.160;2022-12-24T06:15:54;11.30;99.90
57636;DHT22;43465;50.728;4.160;2022-12-24T06:18:20;11.30;99.90
57636;DHT22;43465;50.728;4.160;2022-12-24T06:20:49;11.30;99.90
57636;DHT22;43465;50.728;4.160;2022-12-24T06:23:15;11.30;99.90
57636;DHT22;43465;50.728;4.160;2022-12-24T06:25:41;11.30;99.90
57636;DHT22;43465;50.728;4.160;2022-12-24T06:28:06;11.30;99.90
57636;DHT22;43465;50.728;4.160;2022-12-24T06:30:32;11.30;99.90
57636;DHT22;43465;50.728;4.160;2022-12-24T06:32:58;11.30;99.90
57636;DHT22;43465;50.728;4.160;2022-12-24T06:35:23;11.30;99.90
57636;DHT22;43465;50.728;4.160;2022-12-24T06:37:49;11.30;99.90
57636;DHT22;43465;50.728;4.160;2022-12-24T06:40:15;11.40;99.90
57636;DHT22;43465;50.728;4.160;2022-12-24T06:42:40;11.30;99.90
57636;DHT22;43465;50.728;4.160;2022-12-24T06:45:07;11.30;99.90
57636;DHT22;43465;50.728;4.160;2022-12-24T06:47:32;11.30;99.90
57636;DHT22;43465;50.728;4.160;2022-12-24T06:49:58;11.30;99.90
57636;DHT22;43465;50.728;4.160;2022-12-24T06:52:23;11.20;99.90
57636;DHT22;43465;50.728;4.160;2022-12-24T06:54:49;11.20;99.90
57636;DHT22;43465;50.728;4.160;2022-12-24T06:57:15;11.20;99.90
57636;DHT22;43465;50.728;4.160;2022-12-24T06:59:40;11.20;99.90
57636;DHT22;43465;50.728;4.160;2022-12-24T07:02:07;11.10;99.90
57636;DHT22;43465;50.728;4.160;2022-12-24T07:04:33;11.10;99.90
57636;DHT22;43465;50.728;4.160;2022-12-24T07:06:58;11.10;99.90
57636;DHT22;43465;50.728;4.160;2022-12-24T07:09:24;11.20;99.90
57636;DHT22;43465;50.728;4.160;2022-12-24T07:11:49;11.20;99.90
57636;DHT22;43465;50.728;4.160;2022-12-24T07:14:15;11.20;99.90
57636;DHT22;43465;50.728;4.160;2022-12-24T07:16:41;11.20;99.90
57636;DHT22;43465;50.728;4.160;2022-12-24T07:19:06;11.20;99.90
57636;DHT22;43465;50.728;4.160;2022-12-24T07:21:32;11.20;99.90
57636;DHT22;43465;50.728;4.160;2022-12-24T07:23:58;11.20;99.90
57636;DHT22;43465;50.728;4.160;2022-12-24T07:26:23;11.20;99.90
57636;DHT22;43465;50.728;4.160;2022-12-24T07:28:49;11.20;99.90
57636;DHT22;43465;50.728;4.160;2022-12-24T07:31:18;11.20;99.90
57636;DHT22;43465;50.728;4.160;2022-12-24T07:33:43;11.10;99.90
57636;DHT22;43465;50.728;4.160;2022-12-24T07:36:14;11.10;99.90
57636;DHT22;43465;50.728;4.160;2022-12-24T07:38:41;11.10;99.90
57636;DHT22;43465;50.728;4.160;2022-12-24T07:41:07;11.10;99.90
57636;DHT22;43465;50.728;4.160;2022-12-24T07:43:33;11.00;99.90
57636;DHT22;43465;50.728;4.160;2022-12-24T07:45:58;11.00;99.90
57636;DHT22;43465;50.728;4.160;2022-12-24T07:48:26;11.00;99.90
57636;DHT22;43465;50.728;4.160;2022-12-24T07:50:52;11.00;99.90
57636;DHT22;43465;50.728;4.160;2022-12-24T07:53:18;10.90;99.90
57636;DHT22;43465;50.728;4.160;2022-12-24T07:55:43;10.90;99.90
57636;DHT22;43465;50.728;4.160;2022-12-24T07:58:09;11.00;99.90
57636;DHT22;43465;50.728;4.160;2022-12-24T08:00:35;11.00;99.90
57636;DHT22;43465;50.728;4.160;2022-12-24T08:03:01;11.00;99.90
57636;DHT22;43465;50.728;4.160;2022-12-24T08:05:27;11.00;99.90
57636;DHT22;43465;50.728;4.160;2022-12-24T08:07:53;10.90;99.90
57636;DHT22;43465;50.728;4.160;2022-12-24T08:10:19;10.90;99.90
57636;DHT22;43465;50.728;4.160;2022-12-24T08:12:44;10.80;99.90
57636;DHT22;43465;50.728;4.160;2022-12-24T08:15:12;10.70;99.90
57636;DHT22;43465;50.728;4.160;2022-12-24T08:17:38;10.70;99.90
57636;DHT22;43465;50.728;4.160;2022-12-24T08:20:04;10.60;99.90
57636;DHT22;43465;50.728;4.160;2022-12-24T08:22:30;10.60;99.90
57636;DHT22;43465;50.728;4.160;2022-12-24T08:24:56;10.60;99.90
57636;DHT22;43465;50.728;4.160;2022-12-24T08:27:21;10.60;99.90
57636;DHT22;43465;50.728;4.160;2022-12-24T08:29:47;10.60;99.90
57636;DHT22;43465;50.728;4.160;2022-12-24T08:32:12;10.60;99.90
57636;DHT22;43465;50.728;4.160;2022-12-24T08:34:38;10.60;99.90
57636;DHT22;43465;50.728;4.160;2022-12-24T08:37:04;10.70;99.90
57636;DHT22;43465;50.728;4.160;2022-12-24T08:39:29;10.60;99.90
57636;DHT22;43465;50.728;4.160;2022-12-24T08:41:55;10.60;99.90
57636;DHT22;43465;50.728;4.160;2022-12-24T08:44:21;10.60;99.90
57636;DHT22;43465;50.728;4.160;2022-12-24T08:46:46;10.60;99.90
57636;DHT22;43465;50.728;4.160;2022-12-24T08:49:12;10.60;99.90
57636;DHT22;43465;50.728;4.160;2022-12-24T08:51:38;10.60;99.90
57636;DHT22;43465;50.728;4.160;2022-12-24T08:54:04;10.60;99.90
57636;DHT22;43465;50.728;4.160;2022-12-24T08:56:29;10.70;99.90
57636;DHT22;43465;50.728;4.160;2022-12-24T08:58:55;10.70;99.90
57636;DHT22;43465;50.728;4.160;2022-12-24T09:01:21;10.70;99.90
57636;DHT22;43465;50.728;4.160;2022-12-24T09:03:46;10.80;99.90
57636;DHT22;43465;50.728;4.160;2022-12-24T09:06:13;10.80;99.90
57636;DHT22;43465;50.728;4.160;2022-12-24T09:08:39;10.90;99.90
57636;DHT22;43465;50.728;4.160;2022-12-24T09:11:05;10.90;99.90
57636;DHT22;43465;50.728;4.160;2022-12-24T09:13:31;10.90;99.90
57636;DHT22;43465;50.728;4.160;2022-12-24T09:15:57;10.90;99.90
57636;DHT22;43465;50.728;4.160;2022-12-24T09:18:23;10.90;99.90
57636;DHT22;43465;50.728;4.160;2022-12-24T09:20:49;10.90;99.90
57636;DHT22;43465;50.728;4.160;2022-12-24T09:23:15;10.90;99.90
57636;DHT22;43465;50.728;4.160;2022-12-24T09:25:41;10.90;99.90
57636;DHT22;43465;50.728;4.160;2022-12-24T09:28:07;10.90;99.90
57636;DHT22;43465;50.728;4.160;2022-12-24T09:30:33;10.90;99.90
57636;DHT22;43465;50.728;4.160;2022-12-24T09:32:58;10.90;99.90
57636;DHT22;43465;50.728;4.160;2022-12-24T09:35:24;10.90;99.90
57636;DHT22;43465;50.728;4.160;2022-12-24T09:37:50;10.90;99.90
57636;DHT22;43465;50.728;4.160;2022-12-24T09:40:34;11.00;99.90
57636;DHT22;43465;50.728;4.160;2022-12-24T09:43:13;11.00;99.90
57636;DHT22;43465;50.728;4.160;2022-12-24T09:48:29;11.10;99.90
57636;DHT22;43465;50.728;4.160;2022-12-24T09:51:09;11.00;99.90
57636;DHT22;43465;50.728;4.160;2022-12-24T09:56:31;11.00;99.90
57636;DHT22;43465;50.728;4.160;2022-12-24T09:59:00;11.00;99.90
57636;DHT22;43465;50.728;4.160;2022-12-24T10:01:29;11.00;99.90
57636;DHT22;43465;50.728;4.160;2022-12-24T10:03:57;11.00;99.90
57636;DHT22;43465;50.728;4.160;2022-12-24T10:06:43;11.00;99.90
57636;DHT22;43465;50.728;4.160;2022-12-24T10:15:14;11.10;99.90
57636;DHT22;43465;50.728;4.160;2022-12-24T10:20:41;11.20;99.90
57636;DHT22;43465;50.728;4.160;2022-12-24T10:25:48;11.20;99.90
57636;DHT22;43465;50.728;4.160;2022-12-24T10:28:31;11.10;99.90
57636;DHT22;43465;50.728;4.160;2022-12-24T10:31:02;11.10;99.90
57636;DHT22;43465;50.728;4.160;2022-12-24T10:33:38;11.20;99.90
57636;DHT22;43465;50.728;4.160;2022-12-24T10:36:09;11.20;99.90
57636;DHT22;43465;50.728;4.160;2022-12-24T10:38:36;11.20;99.90
57636;DHT22;43465;50.728;4.160;2022-12-24T10:41:02;11.20;99.90
57636;DHT22;43465;50.728;4.160;2022-12-24T10:43:28;11.20;99.90
57636;DHT22;43465;50.728;4.160;2022-12-24T10:45:57;11.30;99.90
57636;DHT22;43465;50.728;4.160;2022-12-24T10:48:35;11.30;99.90
57636;DHT22;43465;50.728;4.160;2022-12-24T10:51:05;11.30;99.90
57636;DHT22;43465;50.728;4.160;2022-12-24T10:53:42;11.40;99.90
57636;DHT22;43465;50.728;4.160;2022-12-24T10:56:12;11.30;99.90
57636;DHT22;43465;50.728;4.160;2022-12-24T10:58:49;11.30;99.90
57636;DHT22;43465;50.728;4.160;2022-12-24T11:01:15;11.40;99.90
57636;DHT22;43465;50.728;4.160;2022-12-24T11:03:41;11.40;99.90
57636;DHT22;43465;50.728;4.160;2022-12-24T11:06:16;11.40;99.90
57636;DHT22;43465;50.728;4.160;2022-12-24T11:08:47;11.50;99.90
57636;DHT22;43465;50.728;4.160;2022-12-24T11:11:18;11.60;99.90
57636;DHT22;43465;50.728;4.160;2022-12-24T11:16:33;11.70;99.90
57636;DHT22;43465;50.728;4.160;2022-12-24T11:19:16;11.80;99.90
57636;DHT22;43465;50.728;4.160;2022-12-24T11:21:43;11.90;99.90
57636;DHT22;43465;50.728;4.160;2022-12-24T11:26:39;12.20;99.90
57636;DHT22;43465;50.728;4.160;2022-12-24T11:31:45;12.40;99.90
57636;DHT22;43465;50.728;4.160;2022-12-24T11:36:52;12.50;99.90
57636;DHT22;43465;50.728;4.160;2022-12-24T11:39:21;12.50;99.90
57636;DHT22;43465;50.728;4.160;2022-12-24T11:41:48;12.70;99.90
57636;DHT22;43465;50.728;4.160;2022-12-24T11:44:25;12.80;99.90
57636;DHT22;43465;50.728;4.160;2022-12-24T11:46:52;12.90;99.90
57636;DHT22;43465;50.728;4.160;2022-12-24T11:49:25;13.00;99.90
57636;DHT22;43465;50.728;4.160;2022-12-24T11:54:31;13.10;99.90
57636;DHT22;43465;50.728;4.160;2022-12-24T11:57:00;13.10;99.90
57636;DHT22;43465;50.728;4.160;2022-12-24T11:59:37;13.10;99.90
57636;DHT22;43465;50.728;4.160;2022-12-24T12:04:43;13.10;99.90
57636;DHT22;43465;50.728;4.160;2022-12-24T12:07:21;13.20;99.90
57636;DHT22;43465;50.728;4.160;2022-12-24T12:09:54;13.30;99.90
57636;DHT22;43465;50.728;4.160;2022-12-24T12:12:26;13.30;99.90
57636;DHT22;43465;50.728;4.160;2022-12-24T12:15:00;13.30;99.90
57636;DHT22;43465;50.728;4.160;2022-12-24T12:28:36;13.30;99.90
57636;DHT22;43465;50.728;4.160;2022-12-24T12:31:25;13.30;99.90
57636;DHT22;43465;50.728;4.160;2022-12-24T12:34:16;13.30;99.90
57636;DHT22;43465;50.728;4.160;2022-12-24T12:37:30;13.30;99.90
57636;DHT22;43465;50.728;4.160;2022-12-24T12:39:46;13.30;99.90
57636;DHT22;43465;50.728;4.160;2022-12-24T12:45:29;13.40;99.90
57636;DHT22;43465;50.728;4.160;2022-12-24T12:50:52;13.50;99.90
57636;DHT22;43465;50.728;4.160;2022-12-24T12:53:29;13.50;99.90
57636;DHT22;43465;50.728;4.160;2022-12-24T12:59:01;13.50;99.90
57636;DHT22;43465;50.728;4.160;2022-12-24T13:01:45;13.50;99.90
57636;DHT22;43465;50.728;4.160;2022-12-24T13:16:12;13.70;99.90
57636;DHT22;43465;50.728;4.160;2022-12-24T13:18:54;13.70;99.90
57636;DHT22;43465;50.728;4.160;2022-12-24T13:21:25;13.70;99.90
57636;DHT22;43465;50.728;4.160;2022-12-24T13:24:22;13.60;99.90
57636;DHT22;43465;50.728;4.160;2022-12-24T13:34:56;13.60;99.90
57636;DHT22;43465;50.728;4.160;2022-12-24T13:43:05;13.70;99.90
57636;DHT22;43465;50.728;4.160;2022-12-24T13:53:01;13.80;99.90
57636;DHT22;43465;50.728;4.160;2022-12-24T13:55:28;13.80;99.90
57636;DHT22;43465;50.728;4.160;2022-12-24T13:58:04;13.70;99.90
57636;DHT22;43465;50.728;4.160;2022-12-24T14:08:27;13.90;99.90
57636;DHT22;43465;50.728;4.160;2022-12-24T14:18:31;14.30;99.90
57636;DHT22;43465;50.728;4.160;2022-12-24T14:20:59;14.40;99.90
57636;DHT22;43465;50.728;4.160;2022-12-24T14:24:21;14.50;99.90
57636;DHT22;43465;50.728;4.160;2022-12-24T14:26:24;14.50;99.90
57636;DHT22;43465;50.728;4.160;2022-12-24T14:28:59;14.60;99.90
57636;DHT22;43465;50.728;4.160;2022-12-24T14:31:26;14.70;99.90
57636;DHT22;43465;50.728;4.160;2022-12-24T14:34:04;14.70;99.90
57636;DHT22;43465;50.728;4.160;2022-12-24T14:36:31;14.60;99.90
57636;DHT22;43465;50.728;4.160;2022-12-24T14:38:59;14.50;99.90
57636;DHT22;43465;50.728;4.160;2022-12-24T14:44:12;14.40;99.90
57636;DHT22;43465;50.728;4.160;2022-12-24T14:46:47;14.40;99.90
57636;DHT22;43465;50.728;4.160;2022-12-24T14:52:13;14.40;99.90
57636;DHT22;43465;50.728;4.160;2022-12-24T14:54:42;14.40;99.90
57636;DHT22;43465;50.728;4.160;2022-12-24T14:59:58;14.20;99.90
57636;DHT22;43465;50.728;4.160;2022-12-24T15:02:44;14.10;99.90
57636;DHT22;43465;50.728;4.160;2022-12-24T15:05:17;14.00;99.90
57636;DHT22;43465;50.728;4.160;2022-12-24T15:07:58;14.00;99.90
57636;DHT22;43465;50.728;4.160;2022-12-24T15:10:34;13.90;99.90
57636;DHT22;43465;50.728;4.160;2022-12-24T15:13:11;13.90;99.90
57636;DHT22;43465;50.728;4.160;2022-12-24T15:15:42;13.80;99.90
57636;DHT22;43465;50.728;4.160;2022-12-24T15:18:14;13.80;99.90
57636;DHT22;43465;50.728;4.160;2022-12-24T15:20:42;13.70;99.90
57636;DHT22;43465;50.728;4.160;2022-12-24T15:23:18;13.70;99.90
57636;DHT22;43465;50.728;4.160;2022-12-24T15:25:44;13.60;99.90
57636;DHT22;43465;50.728;4.160;2022-12-24T15:28:37;13.50;99.90
57636;DHT22;43465;50.728;4.160;2022-12-24T15:31:18;13.40;99.90
57636;DHT22;43465;50.728;4.160;2022-12-24T15:33:45;13.30;99.90
57636;DHT22;43465;50.728;4.160;2022-12-24T15:36:13;13.30;99.90
57636;DHT22;43465;50.728;4.160;2022-12-24T15:38:44;13.30;99.90
57636;DHT22;43465;50.728;4.160;2022-12-24T15:41:22;13.20;99.90
57636;DHT22;43465;50.728;4.160;2022-12-24T15:43:49;13.10;99.90
57636;DHT22;43465;50.728;4.160;2022-12-24T15:46:19;13.10;99.90
57636;DHT22;43465;50.728;4.160;2022-12-24T15:48:47;13.00;99.90
57636;DHT22;43465;50.728;4.160;2022-12-24T15:51:21;13.00;99.90
57636;DHT22;43465;50.728;4.160;2022-12-24T15:53:48;12.90;99.90
57636;DHT22;43465;50.728;4.160;2022-12-24T15:56:39;12.90;99.90
57636;DHT22;43465;50.728;4.160;2022-12-24T16:01:41;12.90;99.90
57636;DHT22;43465;50.728;4.160;2022-12-24T16:04:20;12.90;99.90
57636;DHT22;43465;50.728;4.160;2022-12-24T16:12:11;12.80;99.90
57636;DHT22;43465;50.728;4.160;2022-12-24T16:14:38;12.80;99.90
57636;DHT22;43465;50.728;4.160;2022-12-24T16:17:17;12.80;99.90
57636;DHT22;43465;50.728;4.160;2022-12-24T16:19:46;12.70;99.90
57636;DHT22;43465;50.728;4.160;2022-12-24T16:22:17;12.70;99.90
57636;DHT22;43465;50.728;4.160;2022-12-24T16:24:56;12.70;99.90
57636;DHT22;43465;50.728;4.160;2022-12-24T16:27:22;12.70;99.90
57636;DHT22;43465;50.728;4.160;2022-12-24T16:29:47;12.60;99.90
57636;DHT22;43465;50.728;4.160;2022-12-24T16:32:32;12.50;99.90
57636;DHT22;43465;50.728;4.160;2022-12-24T16:35:00;12.50;99.90
57636;DHT22;43465;50.728;4.160;2022-12-24T16:37:26;12.50;99.90
57636;DHT22;43465;50.728;4.160;2022-12-24T16:39:52;12.40;99.90
57636;DHT22;43465;50.728;4.160;2022-12-24T16:42:18;12.30;99.90
57636;DHT22;43465;50.728;4.160;2022-12-24T16:45:02;12.40;99.90
57636;DHT22;43465;50.728;4.160;2022-12-24T16:47:30;12.30;99.90
57636;DHT22;43465;50.728;4.160;2022-12-24T16:49:57;12.40;99.90
57636;DHT22;43465;50.728;4.160;2022-12-24T16:52:26;12.30;99.90
57636;DHT22;43465;50.728;4.160;2022-12-24T16:54:54;12.30;99.90
57636;DHT22;43465;50.728;4.160;2022-12-24T16:57:20;12.30;99.90
57636;DHT22;43465;50.728;4.160;2022-12-24T16:59:46;12.30;99.90
57636;DHT22;43465;50.728;4.160;2022-12-24T17:02:14;12.30;99.90
57636;DHT22;43465;50.728;4.160;2022-12-24T17:04:39;12.30;99.90
57636;DHT22;43465;50.728;4.160;2022-12-24T17:07:05;12.30;99.90
57636;DHT22;43465;50.728;4.160;2022-12-24T17:09:31;12.30;99.90
57636;DHT22;43465;50.728;4.160;2022-12-24T17:11:57;12.40;99.90
57636;DHT22;43465;50.728;4.160;2022-12-24T17:14:23;12.30;99.90
57636;DHT22;43465;50.728;4.160;2022-12-24T17:16:48;12.30;99.90
57636;DHT22;43465;50.728;4.160;2022-12-24T17:19:14;12.30;99.90
57636;DHT22;43465;50.728;4.160;2022-12-24T17:21:40;12.30;99.90
57636;DHT22;43465;50.728;4.160;2022-12-24T17:24:07;12.30;99.90
57636;DHT22;43465;50.728;4.160;2022-12-24T17:26:33;12.30;99.90
57636;DHT22;43465;50.728;4.160;2022-12-24T17:28:58;12.30;99.90
57636;DHT22;43465;50.728;4.160;2022-12-24T17:31:26;12.30;99.90
57636;DHT22;43465;50.728;4.160;2022-12-24T17:33:52;12.30;99.90
57636;DHT22;43465;50.728;4.160;2022-12-24T17:36:19;12.20;99.90
57636;DHT22;43465;50.728;4.160;2022-12-24T17:38:45;12.20;99.90
57636;DHT22;43465;50.728;4.160;2022-12-24T17:41:14;12.20;99.90
57636;DHT22;43465;50.728;4.160;2022-12-24T17:43:40;12.20;99.90
57636;DHT22;43465;50.728;4.160;2022-12-24T17:46:13;12.20;99.90
57636;DHT22;43465;50.728;4.160;2022-12-24T17:48:40;12.10;99.90
57636;DHT22;43465;50.728;4.160;2022-12-24T17:51:08;12.10;99.90
57636;DHT22;43465;50.728;4.160;2022-12-24T17:53:35;12.10;99.90
57636;DHT22;43465;50.728;4.160;2022-12-24T17:56:01;12.10;99.90
57636;DHT22;43465;50.728;4.160;2022-12-24T17:58:28;12.10;99.90